Time;durP1;ratioP1;P1;durP2;ratioP2;P2;SDS_P1;SDS_P2;PMS_P1;PMS_P2;Temp;Humidity;BMP_temperature;BMP_pressure;BME280_temperature;BME280_humidity;BME280_pressure;Samples;Min_cycle;Max_cycle;Signal;HPM_P1;HPM_P2
2021/05/18 00:00:12;;;;;;;12.27;8.48;;;10.30;98.40;;;;;;5092859;28;20062;-71
2021/05/18 00:02:37;;;;;;;13.90;7.97;;;10.20;98.40;;;;;;5093094;28;20047;-71
2021/05/18 00:05:06;;;;;;;13.07;8.40;;;10.20;98.40;;;;;;5093548;28;20039;-70
2021/05/18 00:07:32;;;;;;;16.92;9.48;;;10.30;98.40;;;;;;5092955;28;20040;-71
2021/05/18 00:12:42;;;;;;;20.55;9.57;;;10.30;98.50;;;;;;5093036;28;20090;-71
2021/05/18 00:15:16;;;;;;;14.68;8.25;;;10.20;98.60;;;;;;5092948;28;20036;-71
2021/05/18 00:17:43;;;;;;;13.23;9.38;;;10.20;98.50;;;;;;5093567;28;20048;-71
2021/05/18 00:20:12;;;;;;;11.88;8.35;;;10.20;98.60;;;;;;5092710;28;20032;-71
2021/05/18 00:22:38;;;;;;;14.98;9.68;;;10.20;98.60;;;;;;5093280;28;20171;-70
2021/05/18 00:25:05;;;;;;;14.18;9.68;;;10.20;98.60;;;;;;5093202;28;20040;-71
2021/05/18 00:27:31;;;;;;;12.80;9.45;;;10.20;98.70;;;;;;5095835;28;20039;-71
2021/05/18 00:29:59;;;;;;;12.75;8.65;;;10.20;98.60;;;;;;5096233;28;20043;-71
2021/05/18 00:32:25;;;;;;;12.98;9.15;;;10.20;98.70;;;;;;5096672;28;20480;-71
2021/05/18 00:34:55;;;;;;;13.70;9.23;;;10.20;98.60;;;;;;5096707;28;20048;-71
2021/05/18 00:37:22;;;;;;;12.88;9.20;;;10.20;98.60;;;;;;5096610;28;20051;-70
2021/05/18 00:39:48;;;;;;;17.65;10.40;;;10.20;98.80;;;;;;5096232;28;20506;-71
2021/05/18 00:42:20;;;;;;;13.85;9.88;;;10.20;98.80;;;;;;5096529;28;20047;-71
2021/05/18 00:44:46;;;;;;;15.35;9.82;;;10.20;98.90;;;;;;5097305;28;20036;-71
2021/05/18 00:47:12;;;;;;;14.05;9.73;;;10.20;98.90;;;;;;5096583;28;20119;-71
2021/05/18 00:49:38;;;;;;;15.32;9.93;;;10.20;98.90;;;;;;5096258;28;20047;-71
2021/05/18 00:52:07;;;;;;;14.68;9.07;;;10.20;99.00;;;;;;5096648;28;20032;-71
2021/05/18 00:54:40;;;;;;;11.52;8.93;;;10.20;98.80;;;;;;5096328;28;20032;-71
2021/05/18 00:59:58;;;;;;;13.15;9.60;;;10.20;99.00;;;;;;5064762;28;20445;-71
2021/05/18 01:02:24;;;;;;;12.98;8.93;;;10.20;99.00;;;;;;5096131;28;20032;-71
2021/05/18 01:05:06;;;;;;;17.20;10.27;;;10.20;99.00;;;;;;5096157;28;20048;-70
2021/05/18 01:07:31;;;;;;;14.18;9.98;;;10.20;99.00;;;;;;5095906;28;20529;-70
2021/05/18 01:09:57;;;;;;;16.02;9.82;;;10.20;99.00;;;;;;5095605;28;20039;-71
2021/05/18 01:12:23;;;;;;;17.70;10.20;;;10.20;98.90;;;;;;5096497;28;20040;-70
2021/05/18 01:14:48;;;;;;;14.57;9.18;;;10.20;99.00;;;;;;5095860;28;20032;-71
2021/05/18 01:17:14;;;;;;;16.48;10.80;;;10.20;99.10;;;;;;5095740;28;20104;-70
2021/05/18 01:19:40;;;;;;;15.10;10.05;;;10.20;99.10;;;;;;5095302;28;20032;-71
2021/05/18 01:22:05;;;;;;;15.90;9.48;;;10.20;99.20;;;;;;5095488;28;20036;-70
2021/05/18 01:24:33;;;;;;;13.73;9.43;;;10.20;99.10;;;;;;5096005;28;20040;-71
2021/05/18 01:26:59;;;;;;;18.42;10.38;;;10.20;99.20;;;;;;5095794;28;20059;-71
2021/05/18 01:29:25;;;;;;;16.08;10.25;;;10.20;99.20;;;;;;5095267;28;20479;-71
2021/05/18 01:31:52;;;;;;;15.27;9.68;;;10.10;99.20;;;;;;5095686;28;20035;-71
2021/05/18 01:34:18;;;;;;;16.02;9.27;;;10.10;99.20;;;;;;5095526;28;20043;-71
2021/05/18 01:36:47;;;;;;;18.35;10.20;;;10.10;99.10;;;;;;5095298;28;20060;-70
2021/05/18 01:44:32;;;;;;;15.48;10.85;;;10.10;99.20;;;;;;5095821;28;20076;-71
2021/05/18 01:46:58;;;;;;;14.93;10.23;;;10.10;99.10;;;;;;5095208;28;20040;-70
2021/05/18 01:49:24;;;;;;;14.48;9.23;;;10.00;99.10;;;;;;5094740;28;20043;-71
2021/05/18 01:51:54;;;;;;;14.10;9.27;;;10.00;99.10;;;;;;5095709;28;20046;-70
2021/05/18 01:54:27;;;;;;;15.15;9.38;;;9.90;99.00;;;;;;5094983;28;20043;-71
2021/05/18 01:57:16;;;;;;;14.57;9.02;;;9.90;99.00;;;;;;5095202;28;20040;-71
2021/05/18 01:59:40;;;;;;;14.50;9.65;;;9.90;99.00;;;;;;5094642;28;20059;-70
2021/05/18 02:02:06;;;;;;;14.43;9.60;;;9.80;99.00;;;;;;5095636;28;20452;-71
2021/05/18 02:04:39;;;;;;;11.90;9.38;;;9.80;99.30;;;;;;5095471;28;20036;-70
2021/05/18 02:07:33;;;;;;;14.50;9.68;;;9.80;99.00;;;;;;5095191;28;20475;-70
2021/05/18 02:10:00;;;;;;;;;;;9.70;99.00;;;;;;5091737;28;20088;-70
2021/05/18 02:12:26;;;;;;;13.02;9.10;;;9.60;99.10;;;;;;5094918;28;19916;-70
2021/05/18 02:15:02;;;;;;;15.55;9.55;;;9.50;99.10;;;;;;5094869;28;20050;-71
2021/05/18 02:17:32;;;;;;;13.85;9.60;;;9.50;99.00;;;;;;5094630;28;20040;-70
2021/05/18 02:25:16;;;;;;;16.63;10.15;;;9.40;99.10;;;;;;5095050;28;20044;-70
2021/05/18 02:27:42;;;;;;;15.88;9.50;;;9.30;99.10;;;;;;5094472;28;20086;-70
2021/05/18 02:30:09;;;;;;;16.17;10.52;;;9.30;99.10;;;;;;5094174;28;20482;-70
2021/05/18 02:32:36;;;;;;;12.93;9.70;;;9.20;99.20;;;;;;5094554;28;20047;-70
2021/05/18 02:35:04;;;;;;;12.73;9.02;;;9.30;99.10;;;;;;5094428;28;20503;-70
2021/05/18 02:37:30;;;;;;;13.65;8.55;;;9.20;99.10;;;;;;5094792;28;20043;-70
2021/05/18 02:39:56;;;;;;;13.55;9.88;;;9.10;99.10;;;;;;5092806;28;20040;-71
2021/05/18 02:42:22;;;;;;;12.88;9.15;;;9.10;99.10;;;;;;5094185;28;20044;-70
2021/05/18 02:45:00;;;;;;;14.30;9.98;;;9.10;99.20;;;;;;5094624;28;20476;-70
2021/05/18 02:50:30;;;;;;;17.35;10.02;;;9.00;99.20;;;;;;5030546;28;20176;-70
2021/05/18 02:52:56;;;;;;;12.63;9.75;;;9.00;99.20;;;;;;5032022;28;20060;-70
2021/05/18 02:55:30;;;;;;;13.63;9.30;;;9.00;99.20;;;;;;5060509;28;20056;-70
2021/05/18 02:57:56;;;;;;;15.00;11.13;;;8.90;99.20;;;;;;5094523;28;20464;-71
2021/05/18 03:00:23;;;;;;;11.70;9.10;;;8.90;99.20;;;;;;5093504;28;20085;-70
2021/05/18 03:02:50;;;;;;;15.05;10.00;;;8.90;99.20;;;;;;5093660;28;20040;-70
2021/05/18 03:05:19;;;;;;;17.17;10.75;;;8.90;99.30;;;;;;5093691;28;20085;-70
2021/05/18 03:07:45;;;;;;;14.40;10.25;;;8.80;99.30;;;;;;5093973;28;20036;-70
2021/05/18 03:10:13;;;;;;;16.40;10.35;;;8.80;99.30;;;;;;5093586;28;20044;-70
2021/05/18 03:12:39;;;;;;;14.77;10.18;;;8.80;99.40;;;;;;5093737;28;20044;-70
2021/05/18 03:15:07;;;;;;;15.82;9.70;;;8.70;99.40;;;;;;5093751;28;20039;-71
2021/05/18 03:17:33;;;;;;;16.63;10.82;;;8.70;99.50;;;;;;5094049;28;20039;-70
2021/05/18 03:20:07;;;;;;;16.67;10.63;;;8.70;99.50;;;;;;5091916;28;20039;-70
2021/05/18 03:22:33;;;;;;;15.07;9.55;;;8.70;99.50;;;;;;5094130;28;20354;-70
2021/05/18 03:24:59;;;;;;;15.18;10.60;;;8.70;99.50;;;;;;5094000;28;20055;-70
2021/05/18 03:27:27;;;;;;;19.77;10.60;;;8.70;99.50;;;;;;5092373;28;20122;-70
2021/05/18 03:29:53;;;;;;;17.40;10.63;;;8.60;99.50;;;;;;5093282;28;20036;-71
2021/05/18 03:35:05;;;;;;;18.73;9.48;;;8.60;99.50;;;;;;5093500;28;20043;-70
2021/05/18 03:40:06;;;;;;;15.35;10.00;;;8.50;99.50;;;;;;5093047;28;20483;-70
2021/05/18 03:42:39;;;;;;;13.57;9.43;;;8.50;99.50;;;;;;5093343;28;20120;-70
2021/05/18 03:45:20;;;;;;;17.55;10.75;;;8.50;99.50;;;;;;5093322;28;20040;-70
2021/05/18 04:17:02;;;;;;;13.95;9.90;;;8.60;99.90;;;;;;5097325;28;20050;-70
2021/05/18 04:19:33;;;;;;;16.13;10.25;;;8.70;99.90;;;;;;5096456;28;20067;-71
2021/05/18 04:38:46;;;;;;;15.23;9.65;;;9.10;99.90;;;;;;5096594;28;20039;-71
2021/05/18 04:52:10;;;;;;;19.08;11.40;;;9.60;99.50;;;;;;5096308;28;20123;-70
2021/05/18 05:00:18;;;;;;;16.88;10.68;;;10.10;99.10;;;;;;5096120;28;20067;-71
2021/05/18 05:15:38;;;;;;;15.85;9.63;;;11.30;96.90;;;;;;5095794;28;20032;-70
2021/05/18 05:18:04;;;;;;;9.60;7.78;;;11.60;96.70;;;;;;5096226;28;20036;-71
2021/05/18 05:20:31;;;;;;;13.75;9.00;;;11.90;96.50;;;;;;5095476;28;20471;-70
2021/05/18 05:22:57;;;;;;;10.20;8.15;;;12.10;95.90;;;;;;5095672;28;20040;-71
2021/05/18 05:25:23;;;;;;;14.02;8.55;;;12.20;95.50;;;;;;5095956;28;20040;-71
2021/05/18 05:27:49;;;;;;;12.60;8.77;;;12.40;95.20;;;;;;5095737;28;20036;-71
2021/05/18 05:30:15;;;;;;;10.63;8.20;;;12.70;94.90;;;;;;5095053;28;20581;-71
2021/05/18 05:32:41;;;;;;;11.40;7.90;;;13.10;94.70;;;;;;5095340;28;20487;-71
2021/05/18 05:35:07;;;;;;;10.05;7.57;;;13.40;94.10;;;;;;5095895;28;20123;-71
2021/05/18 05:37:33;;;;;;;9.82;6.90;;;13.40;93.40;;;;;;5095312;28;20043;-71
2021/05/18 05:39:59;;;;;;;8.73;7.25;;;13.20;93.50;;;;;;5094883;28;20039;-71
2021/05/18 05:42:25;;;;;;;9.00;7.10;;;13.40;93.00;;;;;;5095147;28;20094;-71
2021/05/18 05:44:51;;;;;;;10.63;7.28;;;13.60;92.80;;;;;;5095148;28;20115;-71
2021/05/18 05:47:18;;;;;;;9.65;7.43;;;13.90;92.30;;;;;;5095182;28;20111;-71
2021/05/18 05:49:44;;;;;;;7.88;6.68;;;13.80;91.90;;;;;;5094883;28;20047;-71
2021/05/18 05:52:16;;;;;;;9.60;7.32;;;13.60;91.80;;;;;;5095063;28;20101;-71
2021/05/18 05:54:43;;;;;;;9.43;6.70;;;13.40;92.40;;;;;;5095397;28;20123;-71
2021/05/18 05:57:09;;;;;;;8.32;7.40;;;13.20;92.70;;;;;;5094999;28;20475;-71
2021/05/18 05:59:34;;;;;;;8.85;7.10;;;13.00;93.40;;;;;;5094547;28;20074;-71
2021/05/18 06:02:03;;;;;;;7.75;6.95;;;12.80;93.60;;;;;;5095461;28;20480;-71
2021/05/18 06:04:28;;;;;;;12.30;7.35;;;12.70;93.50;;;;;;5094655;28;20040;-71
2021/05/18 06:06:54;;;;;;;8.95;7.43;;;12.60;93.90;;;;;;5093949;28;20055;-70
2021/05/18 06:09:20;;;;;;;9.07;8.00;;;12.50;94.30;;;;;;5093361;28;20043;-70
2021/05/18 06:14:34;;;;;;;9.93;7.60;;;12.50;94.30;;;;;;5095225;28;20035;-71
2021/05/18 06:41:54;;;;;;;9.13;7.55;;;13.20;94.10;;;;;;5094212;28;20036;-73
2021/05/18 06:46:51;;;;;;;10.00;7.55;;;13.20;93.60;;;;;;5094210;28;20036;-73
2021/05/18 06:49:17;;;;;;;10.00;8.00;;;13.20;93.60;;;;;;5093609;28;20115;-73
2021/05/18 06:51:43;;;;;;;10.18;7.45;;;13.20;93.50;;;;;;5092724;28;20038;-73
2021/05/18 06:54:09;;;;;;;12.38;7.57;;;13.30;93.20;;;;;;5093930;28;20048;-73
2021/05/18 06:56:37;;;;;;;8.48;7.25;;;13.30;93.20;;;;;;5092881;28;20040;-73
2021/05/18 07:01:29;;;;;;;9.15;7.20;;;13.20;93.00;;;;;;5094182;28;20475;-73
2021/05/18 07:03:56;;;;;;;8.38;7.00;;;13.20;92.80;;;;;;5094171;28;20047;-73
2021/05/18 07:09:06;;;;;;;9.65;7.07;;;13.90;93.00;;;;;;5093755;28;20043;-73
2021/05/18 07:11:32;;;;;;;7.30;6.00;;;14.40;92.10;;;;;;5093935;28;20036;-73
2021/05/18 07:13:58;;;;;;;7.93;6.38;;;15.20;91.50;;;;;;5093621;28;20067;-73
2021/05/18 07:16:23;;;;;;;8.23;6.00;;;15.60;89.50;;;;;;5094163;28;20417;-74
2021/05/18 07:18:49;;;;;;;7.07;6.07;;;15.90;90.10;;;;;;5093764;28;20040;-74
2021/05/18 07:21:16;;;;;;;7.15;6.10;;;16.20;87.30;;;;;;5093487;28;20040;-74
2021/05/18 07:23:44;;;;;;;7.45;5.63;;;16.20;87.50;;;;;;5093333;28;20051;-74
2021/05/18 07:26:10;;;;;;;7.95;6.13;;;15.90;89.00;;;;;;5093770;28;20036;-74
2021/05/18 07:28:36;;;;;;;7.78;6.10;;;15.50;89.20;;;;;;5093047;28;20054;-74
2021/05/18 07:31:04;;;;;;;7.43;5.53;;;15.30;87.90;;;;;;5093155;28;20085;-74
2021/05/18 07:33:31;;;;;;;10.23;6.40;;;15.10;89.40;;;;;;5093817;28;20100;-74
2021/05/18 07:35:58;;;;;;;9.82;5.88;;;15.00;89.40;;;;;;5092749;28;20063;-73
2021/05/18 07:38:27;;;;;;;9.10;7.00;;;14.80;90.40;;;;;;5093873;28;20036;-74
2021/05/18 07:40:56;;;;;;;6.00;5.40;;;15.00;90.20;;;;;;5093506;28;20493;-73
2021/05/18 07:43:22;;;;;;;6.38;5.10;;;15.00;90.40;;;;;;5093176;28;20036;-73
2021/05/18 07:45:58;;;;;;;5.72;5.03;;;15.30;88.80;;;;;;5093217;28;20507;-73
2021/05/18 07:48:41;;;;;;;5.25;4.35;;;15.90;87.80;;;;;;5093297;28;20047;-74
2021/05/18 08:07:13;;;;;;;4.35;3.92;;;14.90;86.40;;;;;;5093204;28;20096;-73
2021/05/18 08:09:44;;;;;;;6.40;4.78;;;15.40;85.80;;;;;;5092951;28;20074;-73
2021/05/18 08:12:10;;;;;;;5.20;3.42;;;15.80;84.60;;;;;;5093606;28;20036;-73
2021/05/18 08:14:40;;;;;;;8.02;4.10;;;16.10;84.00;;;;;;5093444;28;20038;-73
2021/05/18 08:17:17;;;;;;;8.50;4.65;;;16.20;82.90;;;;;;5092938;28;20055;-73
2021/05/18 08:22:59;;;;;;;7.63;5.63;;;15.60;83.50;;;;;;5093242;28;20484;-69
2021/05/18 08:55:36;;;;;;;4.68;3.60;;;15.70;83.90;;;;;;5094957;28;20036;-70
2021/05/18 10:38:34;;;;;;;2.28;1.60;;;13.00;92.00;;;;;;5094384;28;20032;-69
2021/05/18 10:41:06;;;;;;;2.78;1.33;;;12.90;92.60;;;;;;5094053;28;20044;-69
2021/05/18 10:43:33;;;;;;;2.28;1.42;;;12.80;92.80;;;;;;5094193;28;20039;-70
2021/05/18 10:46:05;;;;;;;2.53;1.55;;;13.00;92.70;;;;;;5094078;28;20036;-70
2021/05/18 10:48:34;;;;;;;2.03;1.60;;;13.00;92.80;;;;;;5093833;28;20057;-70
2021/05/18 10:51:20;;;;;;;3.20;1.00;;;13.10;92.60;;;;;;5093905;28;20040;-70
2021/05/18 10:54:04;;;;;;;2.05;1.50;;;13.30;92.30;;;;;;5109696;28;20119;-70
2021/05/18 10:56:30;;;;;;;2.70;1.23;;;13.30;92.80;;;;;;5094255;28;20526;-70
2021/05/18 10:58:55;;;;;;;1.50;1.20;;;13.40;91.80;;;;;;5109804;28;20119;-70
2021/05/18 11:01:22;;;;;;;1.50;1.40;;;13.50;91.00;;;;;;5094255;28;20490;-70
2021/05/18 11:03:48;;;;;;;2.90;1.63;;;13.70;90.90;;;;;;5093597;28;20044;-70
2021/05/18 11:06:14;;;;;;;2.42;1.75;;;13.80;90.80;;;;;;5093800;28;20043;-70
2021/05/18 11:08:40;;;;;;;3.03;2.20;;;13.90;91.20;;;;;;5093824;28;20051;-70
2021/05/18 11:11:05;;;;;;;3.30;2.75;;;13.90;90.90;;;;;;5093178;28;20418;-70
2021/05/18 11:13:31;;;;;;;3.20;2.83;;;13.70;89.00;;;;;;5093971;28;20154;-70
2021/05/18 11:15:58;;;;;;;5.50;3.80;;;14.10;90.80;;;;;;5094116;28;20043;-70
2021/05/18 11:18:30;;;;;;;4.43;3.92;;;14.30;90.20;;;;;;5093405;28;20043;-70
2021/05/18 11:21:05;;;;;;;3.15;2.75;;;14.50;89.10;;;;;;5094027;28;20114;-70
2021/05/18 11:23:32;;;;;;;5.43;3.08;;;14.50;89.30;;;;;;5093769;28;20506;-70
2021/05/18 11:26:08;;;;;;;3.90;2.70;;;14.30;87.70;;;;;;5093616;28;20089;-70
2021/05/18 11:28:39;;;;;;;5.10;3.30;;;14.50;90.00;;;;;;5093689;28;20040;-70
2021/05/18 11:31:20;;;;;;;3.75;3.00;;;14.40;89.90;;;;;;5093268;28;20072;-70
2021/05/18 11:33:49;;;;;;;4.93;2.90;;;14.40;88.70;;;;;;5093609;28;20468;-70
2021/05/18 11:36:16;;;;;;;3.63;3.20;;;14.30;89.70;;;;;;5093963;28;20036;-70
2021/05/18 11:38:48;;;;;;;6.32;3.53;;;14.40;90.80;;;;;;5092947;28;20498;-70
2021/05/18 11:41:21;;;;;;;4.25;3.13;;;14.20;91.20;;;;;;5093174;28;20043;-70
2021/05/18 11:43:52;;;;;;;4.47;3.00;;;14.20;91.20;;;;;;5093275;28;20176;-70
2021/05/18 11:46:18;;;;;;;4.20;3.42;;;14.20;92.00;;;;;;5093492;28;20036;-70
2021/05/18 11:49:00;;;;;;;4.40;3.20;;;14.10;91.90;;;;;;5093098;28;20543;-70
2021/05/18 11:51:49;;;;;;;6.17;4.70;;;14.10;91.90;;;;;;5093668;28;20086;-70
2021/05/18 11:54:18;;;;;;;8.75;6.10;;;14.00;92.00;;;;;;5093901;28;20274;-70
2021/05/18 11:56:45;;;;;;;7.32;6.63;;;14.00;92.60;;;;;;5093582;28;20036;-70
2021/05/18 11:59:15;;;;;;;7.50;5.80;;;13.90;92.80;;;;;;5092735;28;20032;-70
2021/05/18 12:01:56;;;;;;;8.05;6.22;;;13.90;93.10;;;;;;5093089;28;20051;-70
2021/05/18 12:04:23;;;;;;;8.40;5.93;;;13.80;93.20;;;;;;5092850;28;20556;-70
2021/05/18 12:07:00;;;;;;;7.38;5.78;;;13.60;92.90;;;;;;5093106;28;20036;-70
2021/05/18 12:09:27;;;;;;;8.55;5.65;;;13.60;93.50;;;;;;5092701;28;20064;-70
2021/05/18 12:11:57;;;;;;;6.90;6.07;;;13.80;93.80;;;;;;5093485;28;20040;-70
2021/05/18 12:14:24;;;;;;;7.40;5.80;;;14.20;94.60;;;;;;5093079;28;20040;-70
2021/05/18 12:16:51;;;;;;;6.70;4.32;;;14.50;93.60;;;;;;5093525;28;20046;-70
2021/05/18 12:19:18;;;;;;;5.57;4.60;;;14.70;91.90;;;;;;5092873;28;20032;-70
2021/05/18 12:21:48;;;;;;;5.88;4.93;;;14.70;91.40;;;;;;5093131;28;20052;-70
2021/05/18 12:24:16;;;;;;;5.60;3.95;;;15.10;92.70;;;;;;5096558;28;20380;-70
2021/05/18 12:27:00;;;;;;;5.18;3.50;;;15.20;91.30;;;;;;5097306;28;20411;-70
2021/05/18 12:29:51;;;;;;;3.90;3.42;;;15.40;90.40;;;;;;5096656;28;20501;-70
2021/05/18 12:32:23;;;;;;;3.55;3.10;;;15.50;89.10;;;;;;5096826;28;20388;-70
2021/05/18 12:35:06;;;;;;;;;;;15.50;89.20;;;;;;5095411;28;20068;-70
2021/05/18 12:37:44;;;;;;;5.13;4.30;;;15.40;89.40;;;;;;5095966;28;19916;-70
2021/05/18 12:40:17;;;;;;;4.43;3.70;;;15.30;90.90;;;;;;5095946;28;20080;-70
2021/05/18 12:42:44;;;;;;;5.53;3.20;;;15.20;90.80;;;;;;5096304;28;20032;-70
2021/05/18 12:45:41;;;;;;;3.17;2.83;;;15.10;89.50;;;;;;5096914;28;20286;-70
2021/05/18 12:49:00;;;;;;;3.78;2.53;;;15.00;88.40;;;;;;5080215;28;20043;-70
2021/05/18 12:52:17;;;;;;;3.13;2.60;;;14.80;86.00;;;;;;5094035;28;20051;-71
2021/05/18 12:54:56;;;;;;;3.42;2.85;;;14.90;85.60;;;;;;5084244;28;20479;-69
2021/05/18 12:57:24;;;;;;;4.28;3.30;;;14.30;87.10;;;;;;5096047;28;20460;-69
2021/05/18 12:59:59;;;;;;;4.90;3.25;;;14.50;88.20;;;;;;5095558;28;20044;-69
2021/05/18 13:02:46;;;;;;;3.33;2.92;;;14.30;87.50;;;;;;5095281;28;20040;-70
2021/05/18 13:05:17;;;;;;;4.30;3.15;;;14.40;88.00;;;;;;5094871;28;20085;-70
2021/05/18 13:08:03;;;;;;;4.47;3.40;;;14.30;87.60;;;;;;5095330;28;20075;-70
2021/05/18 13:10:39;;;;;;;3.88;3.03;;;14.30;87.20;;;;;;5095719;28;20399;-70
2021/05/18 13:13:06;;;;;;;3.78;3.30;;;14.10;87.60;;;;;;5096769;28;20040;-71
2021/05/18 13:15:32;;;;;;;4.50;3.33;;;13.80;88.60;;;;;;5095818;28;20039;-70
2021/05/18 13:18:01;;;;;;;3.65;3.15;;;13.80;89.90;;;;;;5095736;28;20071;-70
2021/05/18 13:20:37;;;;;;;4.60;2.70;;;13.80;89.70;;;;;;5095270;28;20115;-70
2021/05/18 13:23:04;;;;;;;5.43;3.60;;;13.80;90.10;;;;;;5096168;28;20066;-70
2021/05/18 13:28:19;;;;;;;5.00;4.00;;;13.60;90.80;;;;;;5095578;28;20402;-70
2021/05/18 13:30:45;;;;;;;5.93;4.20;;;13.50;91.10;;;;;;5095518;28;20050;-70
2021/05/18 13:33:11;;;;;;;7.78;5.00;;;13.50;91.30;;;;;;5095349;28;20044;-70
2021/05/18 13:35:36;;;;;;;5.13;4.40;;;13.40;91.80;;;;;;5094654;28;20406;-70
2021/05/18 13:38:02;;;;;;;5.28;4.22;;;13.30;92.10;;;;;;5095923;28;20039;-71
2021/05/18 13:40:28;;;;;;;5.53;4.60;;;13.30;91.90;;;;;;5095360;28;20094;-70
2021/05/18 13:42:55;;;;;;;4.95;4.45;;;13.30;91.90;;;;;;5095470;28;20391;-70
2021/05/18 13:45:25;;;;;;;5.15;4.57;;;13.30;92.30;;;;;;5094528;28;20055;-70
2021/05/18 13:47:53;;;;;;;6.18;5.57;;;13.20;92.90;;;;;;5095213;28;20428;-70
2021/05/18 13:50:20;;;;;;;6.32;5.13;;;13.10;93.30;;;;;;5094844;28;20047;-68
2021/05/18 13:52:46;;;;;;;4.95;4.30;;;13.10;93.10;;;;;;5094600;28;20099;-68
2021/05/18 13:55:13;;;;;;;6.05;5.18;;;13.00;93.10;;;;;;5094892;28;20063;-70
2021/05/18 13:57:39;;;;;;;9.90;6.68;;;13.00;93.70;;;;;;5095082;28;20519;-68
2021/05/18 14:00:09;;;;;;;8.65;5.80;;;13.00;93.90;;;;;;5094823;28;20116;-68
2021/05/18 14:02:41;;;;;;;9.43;6.20;;;13.00;93.90;;;;;;5110466;28;20488;-68
2021/05/18 14:05:10;;;;;;;8.52;6.20;;;13.00;94.30;;;;;;5095306;28;20040;-68
2021/05/18 14:10:27;;;;;;;11.43;6.85;;;13.10;93.40;;;;;;5094359;28;20043;-68
2021/05/18 14:12:53;;;;;;;12.38;7.57;;;13.10;93.80;;;;;;5094624;28;20036;-68
2021/05/18 14:15:18;;;;;;;10.40;8.80;;;13.10;94.10;;;;;;5094911;28;20047;-68
2021/05/18 14:17:44;;;;;;;10.48;8.07;;;13.20;94.40;;;;;;5095150;28;20043;-68
2021/05/18 14:20:10;;;;;;;11.35;7.82;;;13.40;94.20;;;;;;5094139;28;20040;-68
2021/05/18 14:22:36;;;;;;;11.32;8.48;;;13.50;93.90;;;;;;5094666;28;20035;-68
2021/05/18 14:25:05;;;;;;;10.10;7.35;;;13.60;94.00;;;;;;5094678;28;20036;-68
2021/05/18 14:27:36;;;;;;;11.27;7.47;;;13.30;92.80;;;;;;5094230;28;20415;-68
2021/05/18 14:30:04;;;;;;;11.13;7.93;;;13.30;93.40;;;;;;5093855;28;20111;-68
2021/05/18 14:32:31;;;;;;;13.30;8.00;;;13.10;93.10;;;;;;5094067;28;20357;-68
2021/05/18 14:34:56;;;;;;;13.27;10.05;;;13.40;93.10;;;;;;5092253;28;20039;-69
2021/05/18 14:37:23;;;;;;;15.18;10.60;;;13.50;93.10;;;;;;5092319;28;20044;-68
2021/05/18 14:40:04;;;;;;;14.10;10.23;;;13.40;93.10;;;;;;5091903;28;20047;-68
2021/05/18 14:45:17;;;;;;;17.10;11.25;;;13.50;93.10;;;;;;5092074;28;20127;-68
2021/05/18 14:55:58;;;;;;;11.20;8.38;;;13.40;93.60;;;;;;5094389;28;20089;-67
2021/05/18 14:58:24;;;;;;;9.98;7.88;;;13.40;93.80;;;;;;5094191;28;20380;-68
2021/05/18 15:00:49;;;;;;;9.10;7.57;;;13.30;93.40;;;;;;5093404;28;20036;-68
2021/05/18 15:03:15;;;;;;;9.18;8.05;;;13.30;93.40;;;;;;5093825;28;20048;-68
2021/05/18 15:05:41;;;;;;;8.75;7.28;;;13.30;93.60;;;;;;5094049;28;20036;-68
2021/05/18 15:08:07;;;;;;;14.00;9.63;;;13.30;93.30;;;;;;5093951;28;20042;-68
2021/05/18 15:10:33;;;;;;;15.80;11.07;;;13.40;93.10;;;;;;5093308;28;20044;-68
2021/05/18 15:13:00;;;;;;;15.75;10.45;;;13.20;93.20;;;;;;5093662;28;20048;-68
2021/05/18 15:15:27;;;;;;;13.00;9.00;;;13.10;93.00;;;;;;5093841;28;20036;-67
2021/05/18 15:17:56;;;;;;;14.10;9.77;;;13.10;93.20;;;;;;5094266;28;20484;-68
2021/05/18 15:20:22;;;;;;;11.52;9.80;;;13.20;93.70;;;;;;5093272;28;20067;-68
2021/05/18 15:22:48;;;;;;;13.80;9.35;;;13.20;93.00;;;;;;5093339;28;20090;-68
2021/05/18 15:25:15;;;;;;;14.70;10.32;;;13.10;92.80;;;;;;5093372;28;20495;-68
2021/05/18 15:27:41;;;;;;;17.17;11.13;;;13.10;92.90;;;;;;5093442;28;20090;-68
2021/05/18 15:30:08;;;;;;;15.85;11.75;;;13.10;93.20;;;;;;5093172;28;20475;-68
2021/05/18 15:32:34;;;;;;;13.18;9.95;;;13.10;93.20;;;;;;5093503;28;20106;-68
2021/05/18 15:35:00;;;;;;;16.08;10.65;;;13.00;92.90;;;;;;5093496;28;20047;-68
2021/05/18 15:37:26;;;;;;;12.57;10.02;;;13.30;92.50;;;;;;5093297;28;20036;-68
2021/05/18 15:39:51;;;;;;;16.42;11.10;;;13.30;92.30;;;;;;5092965;28;20115;-68
2021/05/18 15:42:17;;;;;;;12.68;9.85;;;13.30;92.90;;;;;;5093833;28;20032;-68
2021/05/18 15:44:43;;;;;;;10.13;7.65;;;13.40;92.40;;;;;;5093391;28;20044;-68
2021/05/18 15:47:08;;;;;;;10.35;8.07;;;13.30;92.20;;;;;;5075866;28;20040;-68
2021/05/18 15:49:34;;;;;;;11.70;8.43;;;13.30;91.80;;;;;;5072699;28;20464;-68
2021/05/18 15:52:00;;;;;;;10.90;8.35;;;13.30;91.80;;;;;;5073468;28;20356;-68
2021/05/18 15:54:27;;;;;;;12.32;8.80;;;13.20;91.90;;;;;;5072965;28;20047;-68
2021/05/18 15:56:53;;;;;;;10.85;8.38;;;13.10;91.60;;;;;;5075512;28;20032;-69
2021/05/18 15:59:19;;;;;;;12.02;8.82;;;13.00;91.60;;;;;;5097056;28;20043;-68
2021/05/18 16:01:44;;;;;;;10.45;8.82;;;12.90;91.50;;;;;;5097658;28;20036;-68
2021/05/18 16:04:12;;;;;;;14.43;9.52;;;12.80;91.40;;;;;;5097855;28;20044;-68
2021/05/18 16:06:43;;;;;;;12.07;8.85;;;12.80;91.40;;;;;;5096751;28;20492;-68
2021/05/18 16:09:10;;;;;;;11.23;9.15;;;12.80;91.10;;;;;;5096972;28;20115;-68
2021/05/18 16:11:37;;;;;;;11.63;8.73;;;12.80;91.10;;;;;;5097302;28;20487;-69
2021/05/18 16:14:04;;;;;;;10.98;9.60;;;12.80;91.50;;;;;;5097352;28;20048;-68
2021/05/18 16:16:30;;;;;;;10.25;8.38;;;12.80;91.60;;;;;;5096910;28;20040;-68
2021/05/18 16:18:56;;;;;;;10.77;8.55;;;12.80;92.00;;;;;;5096786;28;20044;-68
2021/05/18 16:21:24;;;;;;;10.98;8.02;;;12.90;91.70;;;;;;5096750;28;20044;-68
2021/05/18 16:23:53;;;;;;;9.52;8.27;;;12.80;91.40;;;;;;5096699;28;20047;-68
2021/05/18 16:26:23;;;;;;;11.05;8.23;;;12.90;91.00;;;;;;5096876;28;20063;-68
2021/05/18 16:28:50;;;;;;;11.73;9.25;;;12.80;91.00;;;;;;5096733;28;20040;-68
2021/05/18 16:31:17;;;;;;;11.13;8.93;;;12.80;90.80;;;;;;5096997;28;20055;-68
2021/05/18 16:33:43;;;;;;;12.00;8.45;;;12.90;91.10;;;;;;5096995;28;20048;-68
2021/05/18 16:36:10;;;;;;;11.80;8.77;;;13.00;91.40;;;;;;5096757;28;20043;-68
2021/05/18 16:38:36;;;;;;;11.10;8.88;;;12.90;90.80;;;;;;5095372;28;20108;-68
2021/05/18 16:41:04;;;;;;;8.98;7.88;;;12.90;91.20;;;;;;5096553;28;20514;-68
2021/05/18 16:43:29;;;;;;;9.73;8.25;;;12.80;90.40;;;;;;5097006;28;20170;-68
2021/05/18 16:45:55;;;;;;;11.32;7.93;;;12.90;90.70;;;;;;5096437;28;20519;-67
2021/05/18 16:48:22;;;;;;;8.80;7.15;;;13.00;91.40;;;;;;5096386;28;20059;-68
2021/05/18 16:50:48;;;;;;;9.38;8.38;;;12.90;90.40;;;;;;5096561;28;20123;-68
2021/05/18 16:53:14;;;;;;;9.57;7.50;;;12.90;90.30;;;;;;5096750;28;20444;-68
2021/05/18 16:55:41;;;;;;;9.13;7.57;;;12.90;90.30;;;;;;5096736;28;20444;-68
2021/05/18 16:58:07;;;;;;;11.82;7.90;;;12.80;89.80;;;;;;5095970;28;20068;-67
2021/05/18 17:00:34;;;;;;;9.18;7.97;;;12.80;89.70;;;;;;5095701;28;20113;-67
2021/05/18 17:03:01;;;;;;;10.50;8.40;;;12.70;90.00;;;;;;5096322;28;20048;-67
2021/05/18 17:05:27;;;;;;;10.57;8.40;;;12.70;90.20;;;;;;5095968;28;20480;-68
2021/05/18 17:07:54;;;;;;;12.35;8.77;;;12.80;90.50;;;;;;5096368;28;20032;-70
2021/05/18 17:10:22;;;;;;;9.55;7.97;;;12.80;90.80;;;;;;5094889;28;20040;-70
2021/05/18 17:12:49;;;;;;;8.80;7.78;;;12.70;90.50;;;;;;5096139;28;20040;-70
2021/05/18 17:15:15;;;;;;;10.57;8.25;;;12.60;90.20;;;;;;5096317;28;20040;-70
2021/05/18 17:17:41;;;;;;;9.68;7.95;;;12.60;90.40;;;;;;5095912;28;20035;-70
2021/05/18 17:20:08;;;;;;;11.13;7.55;;;12.60;90.40;;;;;;5095559;28;20036;-70
2021/05/18 17:22:34;;;;;;;9.65;7.47;;;12.60;90.30;;;;;;5096489;28;20039;-70
2021/05/18 17:25:00;;;;;;;9.98;7.15;;;12.60;90.40;;;;;;5095344;28;20515;-70
2021/05/18 17:27:25;;;;;;;11.00;7.88;;;12.60;90.50;;;;;;5095773;28;20082;-70
2021/05/18 17:29:51;;;;;;;9.57;7.22;;;12.60;90.10;;;;;;5095339;28;20047;-69
2021/05/18 17:32:17;;;;;;;10.98;7.63;;;12.60;90.20;;;;;;5094504;28;20040;-68
2021/05/18 17:34:43;;;;;;;7.63;6.80;;;12.60;90.20;;;;;;5095341;28;20179;-68
2021/05/18 17:37:08;;;;;;;9.85;7.70;;;12.70;90.60;;;;;;5095793;28;20051;-68
2021/05/18 17:39:35;;;;;;;9.82;8.05;;;12.70;90.60;;;;;;5095340;28;20043;-68
2021/05/18 17:42:00;;;;;;;10.07;7.93;;;12.70;90.70;;;;;;5095376;28;20044;-68
2021/05/18 17:44:28;;;;;;;8.75;7.13;;;12.70;90.90;;;;;;5095308;28;20097;-68
2021/05/18 17:46:54;;;;;;;10.80;7.88;;;12.80;90.70;;;;;;5094064;28;20044;-68
2021/05/18 17:49:21;;;;;;;9.70;8.20;;;12.70;90.70;;;;;;5094405;28;20058;-68
2021/05/18 17:51:49;;;;;;;10.93;7.75;;;12.60;90.50;;;;;;5095560;28;20483;-68